sensor_id;sensor_type;location;lat;lon;timestamp;P1;durP1;ratioP1;P2;durP2;ratioP2
3943;SDS011;1986;52.546;13.428;2022-12-31T00:01:42;11.47;;;11.17;;
3943;SDS011;1986;52.546;13.428;2022-12-31T00:04:10;11.23;;;10.93;;
3943;SDS011;1986;52.546;13.428;2022-12-31T00:06:37;10.97;;;10.77;;
3943;SDS011;1986;52.546;13.428;2022-12-31T00:09:06;10.80;;;10.47;;
3943;SDS011;1986;52.546;13.428;2022-12-31T00:11:37;9.90;;;9.70;;
3943;SDS011;1986;52.546;13.428;2022-12-31T00:14:04;9.13;;;8.93;;
3943;SDS011;1986;52.546;13.428;2022-12-31T00:16:33;7.80;;;7.50;;
3943;SDS011;1986;52.546;13.428;2022-12-31T00:19:01;7.73;;;7.63;;
3943;SDS011;1986;52.546;13.428;2022-12-31T00:21:31;7.53;;;7.43;;
3943;SDS011;1986;52.546;13.428;2022-12-31T00:24:02;8.07;;;7.97;;
3943;SDS011;1986;52.546;13.428;2022-12-31T00:26:33;8.13;;;8.03;;
3943;SDS011;1986;52.546;13.428;2022-12-31T00:29:02;8.27;;;8.17;;
3943;SDS011;1986;52.546;13.428;2022-12-31T00:31:31;8.50;;;8.30;;
3943;SDS011;1986;52.546;13.428;2022-12-31T00:34:02;8.00;;;7.90;;
3943;SDS011;1986;52.546;13.428;2022-12-31T00:36:32;7.60;;;7.50;;
3943;SDS011;1986;52.546;13.428;2022-12-31T00:39:01;7.80;;;7.70;;
3943;SDS011;1986;52.546;13.428;2022-12-31T00:41:29;7.50;;;7.40;;
3943;SDS011;1986;52.546;13.428;2022-12-31T00:43:57;8.00;;;7.90;;
3943;SDS011;1986;52.546;13.428;2022-12-31T00:46:24;7.77;;;7.67;;
3943;SDS011;1986;52.546;13.428;2022-12-31T00:48:51;8.10;;;8.00;;
3943;SDS011;1986;52.546;13.428;2022-12-31T00:51:20;8.23;;;8.13;;
3943;SDS011;1986;52.546;13.428;2022-12-31T00:53:52;8.60;;;8.50;;
3943;SDS011;1986;52.546;13.428;2022-12-31T00:56:20;8.70;;;8.57;;
3943;SDS011;1986;52.546;13.428;2022-12-31T00:58:52;9.17;;;8.97;;
3943;SDS011;1986;52.546;13.428;2022-12-31T01:01:20;9.70;;;9.50;;
3943;SDS011;1986;52.546;13.428;2022-12-31T01:03:50;8.50;;;8.40;;
3943;SDS011;1986;52.546;13.428;2022-12-31T01:06:19;9.33;;;9.13;;
3943;SDS011;1986;52.546;13.428;2022-12-31T01:08:47;8.27;;;8.17;;
3943;SDS011;1986;52.546;13.428;2022-12-31T01:11:17;8.23;;;8.13;;
3943;SDS011;1986;52.546;13.428;2022-12-31T01:13:46;8.00;;;7.90;;
3943;SDS011;1986;52.546;13.428;2022-12-31T01:16:14;7.60;;;7.50;;
3943;SDS011;1986;52.546;13.428;2022-12-31T01:18:43;7.77;;;7.67;;
3943;SDS011;1986;52.546;13.428;2022-12-31T01:21:10;8.00;;;7.90;;
3943;SDS011;1986;52.546;13.428;2022-12-31T01:23:38;7.90;;;7.80;;
3943;SDS011;1986;52.546;13.428;2022-12-31T01:26:07;8.20;;;8.10;;
3943;SDS011;1986;52.546;13.428;2022-12-31T01:28:37;8.50;;;8.40;;
3943;SDS011;1986;52.546;13.428;2022-12-31T01:31:14;8.13;;;8.03;;
3943;SDS011;1986;52.546;13.428;2022-12-31T01:33:43;8.30;;;8.20;;
3943;SDS011;1986;52.546;13.428;2022-12-31T01:36:11;8.80;;;8.60;;
3943;SDS011;1986;52.546;13.428;2022-12-31T01:38:39;8.20;;;8.10;;
3943;SDS011;1986;52.546;13.428;2022-12-31T01:41:08;8.70;;;8.60;;
3943;SDS011;1986;52.546;13.428;2022-12-31T01:43:43;8.20;;;8.10;;
3943;SDS011;1986;52.546;13.428;2022-12-31T01:46:13;8.37;;;8.27;;
3943;SDS011;1986;52.546;13.428;2022-12-31T01:48:49;8.00;;;7.90;;
3943;SDS011;1986;52.546;13.428;2022-12-31T01:51:21;7.50;;;7.40;;
3943;SDS011;1986;52.546;13.428;2022-12-31T01:53:52;6.90;;;6.80;;
3943;SDS011;1986;52.546;13.428;2022-12-31T01:56:20;5.70;;;5.60;;
3943;SDS011;1986;52.546;13.428;2022-12-31T01:58:51;5.17;;;5.07;;
3943;SDS011;1986;52.546;13.428;2022-12-31T02:01:26;4.00;;;4.00;;
3943;SDS011;1986;52.546;13.428;2022-12-31T02:03:58;3.30;;;3.30;;
3943;SDS011;1986;52.546;13.428;2022-12-31T02:06:30;3.27;;;3.27;;
3943;SDS011;1986;52.546;13.428;2022-12-31T02:09:05;3.00;;;3.00;;
3943;SDS011;1986;52.546;13.428;2022-12-31T02:11:33;2.10;;;2.10;;
3943;SDS011;1986;52.546;13.428;2022-12-31T02:14:04;1.93;;;1.93;;
3943;SDS011;1986;52.546;13.428;2022-12-31T02:16:35;1.80;;;1.80;;
3943;SDS011;1986;52.546;13.428;2022-12-31T02:19:13;1.90;;;1.90;;
3943;SDS011;1986;52.546;13.428;2022-12-31T02:22:04;1.87;;;1.87;;
3943;SDS011;1986;52.546;13.428;2022-12-31T02:27:49;1.80;;;1.80;;
3943;SDS011;1986;52.546;13.428;2022-12-31T02:30:24;1.57;;;1.57;;
3943;SDS011;1986;52.546;13.428;2022-12-31T02:32:58;1.80;;;1.80;;
3943;SDS011;1986;52.546;13.428;2022-12-31T02:35:36;1.50;;;1.50;;
3943;SDS011;1986;52.546;13.428;2022-12-31T02:38:10;1.70;;;1.70;;
3943;SDS011;1986;52.546;13.428;2022-12-31T02:40:40;1.70;;;1.70;;
3943;SDS011;1986;52.546;13.428;2022-12-31T02:43:08;1.50;;;1.50;;
3943;SDS011;1986;52.546;13.428;2022-12-31T02:45:37;1.87;;;1.87;;
3943;SDS011;1986;52.546;13.428;2022-12-31T02:48:16;1.60;;;1.60;;
3943;SDS011;1986;52.546;13.428;2022-12-31T02:50:57;1.60;;;1.60;;
3943;SDS011;1986;52.546;13.428;2022-12-31T02:53:40;1.70;;;1.70;;
3943;SDS011;1986;52.546;13.428;2022-12-31T02:56:33;1.50;;;1.50;;
3943;SDS011;1986;52.546;13.428;2022-12-31T02:59:12;1.50;;;1.50;;
3943;SDS011;1986;52.546;13.428;2022-12-31T03:02:05;1.60;;;1.60;;
3943;SDS011;1986;52.546;13.428;2022-12-31T03:04:39;1.80;;;1.80;;
3943;SDS011;1986;52.546;13.428;2022-12-31T03:07:10;2.17;;;2.17;;
3943;SDS011;1986;52.546;13.428;2022-12-31T03:09:39;1.93;;;1.93;;
3943;SDS011;1986;52.546;13.428;2022-12-31T03:12:07;1.90;;;1.90;;
3943;SDS011;1986;52.546;13.428;2022-12-31T03:14:53;2.07;;;1.97;;
3943;SDS011;1986;52.546;13.428;2022-12-31T03:17:22;1.67;;;1.67;;
3943;SDS011;1986;52.546;13.428;2022-12-31T03:19:49;1.73;;;1.73;;
3943;SDS011;1986;52.546;13.428;2022-12-31T03:22:35;1.80;;;1.80;;
3943;SDS011;1986;52.546;13.428;2022-12-31T03:25:06;2.00;;;2.00;;
3943;SDS011;1986;52.546;13.428;2022-12-31T03:27:52;1.60;;;1.60;;
3943;SDS011;1986;52.546;13.428;2022-12-31T03:30:20;1.60;;;1.60;;
3943;SDS011;1986;52.546;13.428;2022-12-31T03:32:50;1.50;;;1.50;;
3943;SDS011;1986;52.546;13.428;2022-12-31T03:35:18;3.17;;;2.97;;
3943;SDS011;1986;52.546;13.428;2022-12-31T03:37:47;1.50;;;1.50;;
3943;SDS011;1986;52.546;13.428;2022-12-31T03:40:17;1.30;;;1.30;;
3943;SDS011;1986;52.546;13.428;2022-12-31T03:42:45;1.37;;;1.37;;
3943;SDS011;1986;52.546;13.428;2022-12-31T03:45:12;1.10;;;1.10;;
3943;SDS011;1986;52.546;13.428;2022-12-31T03:47:39;1.30;;;1.13;;
3943;SDS011;1986;52.546;13.428;2022-12-31T03:50:12;4.30;;;1.30;;
3943;SDS011;1986;52.546;13.428;2022-12-31T03:52:40;1.17;;;1.17;;
3943;SDS011;1986;52.546;13.428;2022-12-31T03:55:07;1.10;;;1.10;;
3943;SDS011;1986;52.546;13.428;2022-12-31T03:57:35;1.10;;;1.10;;
3943;SDS011;1986;52.546;13.428;2022-12-31T04:00:03;1.00;;;1.00;;
3943;SDS011;1986;52.546;13.428;2022-12-31T04:02:31;1.00;;;1.00;;
3943;SDS011;1986;52.546;13.428;2022-12-31T04:05:00;1.00;;;1.00;;
3943;SDS011;1986;52.546;13.428;2022-12-31T04:07:28;1.00;;;1.00;;
3943;SDS011;1986;52.546;13.428;2022-12-31T04:09:58;1.00;;;1.00;;
3943;SDS011;1986;52.546;13.428;2022-12-31T04:12:25;1.10;;;1.10;;
3943;SDS011;1986;52.546;13.428;2022-12-31T04:14:52;1.00;;;1.00;;
3943;SDS011;1986;52.546;13.428;2022-12-31T04:17:22;1.20;;;1.20;;
3943;SDS011;1986;52.546;13.428;2022-12-31T04:19:51;1.10;;;1.10;;
3943;SDS011;1986;52.546;13.428;2022-12-31T04:22:19;1.23;;;1.23;;
3943;SDS011;1986;52.546;13.428;2022-12-31T04:24:48;1.20;;;1.20;;
3943;SDS011;1986;52.546;13.428;2022-12-31T04:27:16;1.30;;;1.30;;
3943;SDS011;1986;52.546;13.428;2022-12-31T04:29:44;1.30;;;1.30;;
3943;SDS011;1986;52.546;13.428;2022-12-31T04:32:11;1.50;;;1.50;;
3943;SDS011;1986;52.546;13.428;2022-12-31T04:34:38;1.40;;;1.40;;
3943;SDS011;1986;52.546;13.428;2022-12-31T04:37:05;1.63;;;1.63;;
3943;SDS011;1986;52.546;13.428;2022-12-31T04:39:32;1.50;;;1.50;;
3943;SDS011;1986;52.546;13.428;2022-12-31T04:42:00;1.57;;;1.57;;
3943;SDS011;1986;52.546;13.428;2022-12-31T04:44:27;2.63;;;2.53;;
3943;SDS011;1986;52.546;13.428;2022-12-31T04:46:55;1.50;;;1.50;;
3943;SDS011;1986;52.546;13.428;2022-12-31T04:49:22;2.20;;;2.10;;
3943;SDS011;1986;52.546;13.428;2022-12-31T04:51:49;1.60;;;1.50;;
3943;SDS011;1986;52.546;13.428;2022-12-31T04:54:16;1.70;;;1.70;;
3943;SDS011;1986;52.546;13.428;2022-12-31T04:56:43;1.50;;;1.50;;
3943;SDS011;1986;52.546;13.428;2022-12-31T04:59:11;1.37;;;1.37;;
3943;SDS011;1986;52.546;13.428;2022-12-31T05:01:38;1.20;;;1.20;;
3943;SDS011;1986;52.546;13.428;2022-12-31T05:04:05;1.30;;;1.30;;
3943;SDS011;1986;52.546;13.428;2022-12-31T05:06:32;1.20;;;1.20;;
3943;SDS011;1986;52.546;13.428;2022-12-31T05:08:59;1.07;;;1.07;;
3943;SDS011;1986;52.546;13.428;2022-12-31T05:11:28;1.00;;;1.00;;
3943;SDS011;1986;52.546;13.428;2022-12-31T05:13:55;1.20;;;1.20;;
3943;SDS011;1986;52.546;13.428;2022-12-31T05:16:23;1.20;;;1.20;;
3943;SDS011;1986;52.546;13.428;2022-12-31T05:18:50;1.30;;;1.30;;
3943;SDS011;1986;52.546;13.428;2022-12-31T05:21:17;1.20;;;1.20;;
3943;SDS011;1986;52.546;13.428;2022-12-31T05:23:46;1.50;;;1.50;;
3943;SDS011;1986;52.546;13.428;2022-12-31T05:26:14;1.30;;;1.30;;
3943;SDS011;1986;52.546;13.428;2022-12-31T05:28:41;1.50;;;1.50;;
3943;SDS011;1986;52.546;13.428;2022-12-31T05:31:09;1.50;;;1.50;;
3943;SDS011;1986;52.546;13.428;2022-12-31T05:33:37;1.30;;;1.30;;
3943;SDS011;1986;52.546;13.428;2022-12-31T05:36:04;1.50;;;1.50;;
3943;SDS011;1986;52.546;13.428;2022-12-31T05:38:35;1.70;;;1.70;;
3943;SDS011;1986;52.546;13.428;2022-12-31T05:41:03;1.80;;;1.80;;
3943;SDS011;1986;52.546;13.428;2022-12-31T05:43:32;8.67;;;8.47;;
3943;SDS011;1986;52.546;13.428;2022-12-31T05:45:59;11.23;;;11.00;;
3943;SDS011;1986;52.546;13.428;2022-12-31T05:48:27;15.93;;;15.33;;
3943;SDS011;1986;52.546;13.428;2022-12-31T05:50:56;15.20;;;14.60;;
3943;SDS011;1986;52.546;13.428;2022-12-31T05:53:23;14.60;;;14.10;;
3943;SDS011;1986;52.546;13.428;2022-12-31T05:55:50;13.30;;;12.90;;
3943;SDS011;1986;52.546;13.428;2022-12-31T05:58:17;13.60;;;13.20;;
3943;SDS011;1986;52.546;13.428;2022-12-31T06:00:44;11.50;;;11.20;;
3943;SDS011;1986;52.546;13.428;2022-12-31T06:03:11;10.00;;;9.80;;
3943;SDS011;1986;52.546;13.428;2022-12-31T06:05:39;9.07;;;8.97;;
3943;SDS011;1986;52.546;13.428;2022-12-31T06:08:08;8.10;;;8.00;;
3943;SDS011;1986;52.546;13.428;2022-12-31T06:10:36;7.33;;;7.23;;
3943;SDS011;1986;52.546;13.428;2022-12-31T06:13:03;6.73;;;6.63;;
3943;SDS011;1986;52.546;13.428;2022-12-31T06:15:30;6.30;;;6.20;;
3943;SDS011;1986;52.546;13.428;2022-12-31T06:17:57;6.00;;;5.90;;
3943;SDS011;1986;52.546;13.428;2022-12-31T06:20:25;5.50;;;5.40;;
3943;SDS011;1986;52.546;13.428;2022-12-31T06:22:52;4.67;;;4.67;;
3943;SDS011;1986;52.546;13.428;2022-12-31T06:25:20;3.47;;;3.47;;
3943;SDS011;1986;52.546;13.428;2022-12-31T06:27:47;3.53;;;3.53;;
3943;SDS011;1986;52.546;13.428;2022-12-31T06:30:14;3.43;;;3.20;;
3943;SDS011;1986;52.546;13.428;2022-12-31T06:32:41;3.10;;;3.00;;
3943;SDS011;1986;52.546;13.428;2022-12-31T06:35:10;2.00;;;2.00;;
3943;SDS011;1986;52.546;13.428;2022-12-31T06:37:42;1.80;;;1.80;;
3943;SDS011;1986;52.546;13.428;2022-12-31T06:40:10;2.57;;;2.57;;
3943;SDS011;1986;52.546;13.428;2022-12-31T06:42:39;2.20;;;2.20;;
3943;SDS011;1986;52.546;13.428;2022-12-31T06:45:08;2.60;;;2.60;;
3943;SDS011;1986;52.546;13.428;2022-12-31T06:47:36;2.90;;;2.80;;
3943;SDS011;1986;52.546;13.428;2022-12-31T06:50:06;2.30;;;2.30;;
3943;SDS011;1986;52.546;13.428;2022-12-31T06:52:33;2.13;;;2.13;;
3943;SDS011;1986;52.546;13.428;2022-12-31T06:55:01;2.50;;;2.50;;
3943;SDS011;1986;52.546;13.428;2022-12-31T06:57:28;2.70;;;2.70;;
3943;SDS011;1986;52.546;13.428;2022-12-31T06:59:57;3.10;;;3.10;;
3943;SDS011;1986;52.546;13.428;2022-12-31T07:02:28;2.93;;;2.93;;
3943;SDS011;1986;52.546;13.428;2022-12-31T07:05:20;3.30;;;3.30;;
3943;SDS011;1986;52.546;13.428;2022-12-31T07:08:03;3.40;;;3.40;;
3943;SDS011;1986;52.546;13.428;2022-12-31T07:10:42;3.80;;;3.80;;
3943;SDS011;1986;52.546;13.428;2022-12-31T07:13:22;4.00;;;4.00;;
3943;SDS011;1986;52.546;13.428;2022-12-31T07:16:08;4.10;;;4.10;;
3943;SDS011;1986;52.546;13.428;2022-12-31T07:18:45;4.13;;;4.13;;
3943;SDS011;1986;52.546;13.428;2022-12-31T07:21:17;4.23;;;4.13;;
3943;SDS011;1986;52.546;13.428;2022-12-31T07:23:51;3.57;;;3.57;;
3943;SDS011;1986;52.546;13.428;2022-12-31T07:26:20;3.40;;;3.40;;
3943;SDS011;1986;52.546;13.428;2022-12-31T07:28:57;3.30;;;3.30;;
3943;SDS011;1986;52.546;13.428;2022-12-31T07:31:37;2.70;;;2.70;;
3943;SDS011;1986;52.546;13.428;2022-12-31T07:34:18;2.50;;;2.50;;
3943;SDS011;1986;52.546;13.428;2022-12-31T07:36:54;2.90;;;2.90;;
3943;SDS011;1986;52.546;13.428;2022-12-31T07:39:30;3.27;;;3.17;;
3943;SDS011;1986;52.546;13.428;2022-12-31T07:42:20;3.50;;;3.50;;
3943;SDS011;1986;52.546;13.428;2022-12-31T07:45:11;4.20;;;4.20;;
3943;SDS011;1986;52.546;13.428;2022-12-31T07:50:34;5.10;;;5.00;;
3943;SDS011;1986;52.546;13.428;2022-12-31T07:53:02;5.17;;;5.07;;
3943;SDS011;1986;52.546;13.428;2022-12-31T07:55:47;6.10;;;6.00;;
3943;SDS011;1986;52.546;13.428;2022-12-31T07:58:20;7.40;;;6.73;;
3943;SDS011;1986;52.546;13.428;2022-12-31T08:00:50;7.07;;;6.97;;
3943;SDS011;1986;52.546;13.428;2022-12-31T08:03:26;8.10;;;8.00;;
3943;SDS011;1986;52.546;13.428;2022-12-31T08:06:07;9.03;;;8.83;;
3943;SDS011;1986;52.546;13.428;2022-12-31T08:08:40;9.60;;;9.40;;
3943;SDS011;1986;52.546;13.428;2022-12-31T08:11:15;9.87;;;9.67;;
3943;SDS011;1986;52.546;13.428;2022-12-31T08:13:51;10.53;;;10.27;;
3943;SDS011;1986;52.546;13.428;2022-12-31T08:16:20;11.20;;;10.90;;
3943;SDS011;1986;52.546;13.428;2022-12-31T08:18:49;11.57;;;11.27;;
3943;SDS011;1986;52.546;13.428;2022-12-31T08:21:20;12.20;;;11.90;;
3943;SDS011;1986;52.546;13.428;2022-12-31T08:23:59;12.83;;;12.43;;
3943;SDS011;1986;52.546;13.428;2022-12-31T08:26:34;12.63;;;12.30;;
3943;SDS011;1986;52.546;13.428;2022-12-31T08:29:11;13.67;;;13.27;;
3943;SDS011;1986;52.546;13.428;2022-12-31T08:31:53;13.63;;;13.20;;
3943;SDS011;1986;52.546;13.428;2022-12-31T08:34:29;13.23;;;12.83;;
3943;SDS011;1986;52.546;13.428;2022-12-31T08:37:04;12.50;;;12.20;;
3943;SDS011;1986;52.546;13.428;2022-12-31T08:39:42;13.23;;;12.83;;
3943;SDS011;1986;52.546;13.428;2022-12-31T08:42:22;11.67;;;11.37;;
3943;SDS011;1986;52.546;13.428;2022-12-31T08:44:56;10.00;;;9.77;;
3943;SDS011;1986;52.546;13.428;2022-12-31T08:47:32;9.90;;;9.70;;
3943;SDS011;1986;52.546;13.428;2022-12-31T08:50:13;7.50;;;7.40;;
3943;SDS011;1986;52.546;13.428;2022-12-31T08:52:41;5.30;;;5.20;;
3943;SDS011;1986;52.546;13.428;2022-12-31T08:55:11;5.40;;;5.30;;
3943;SDS011;1986;52.546;13.428;2022-12-31T08:57:41;5.90;;;5.80;;
3943;SDS011;1986;52.546;13.428;2022-12-31T09:00:18;5.77;;;5.67;;
3943;SDS011;1986;52.546;13.428;2022-12-31T09:02:50;6.77;;;6.57;;
3943;SDS011;1986;52.546;13.428;2022-12-31T09:05:31;5.87;;;5.77;;
3943;SDS011;1986;52.546;13.428;2022-12-31T09:08:07;6.50;;;6.40;;
3943;SDS011;1986;52.546;13.428;2022-12-31T09:10:46;6.30;;;6.20;;
3943;SDS011;1986;52.546;13.428;2022-12-31T09:13:24;6.90;;;6.80;;
3943;SDS011;1986;52.546;13.428;2022-12-31T09:16:12;7.80;;;7.60;;
3943;SDS011;1986;52.546;13.428;2022-12-31T09:18:47;7.70;;;7.60;;
3943;SDS011;1986;52.546;13.428;2022-12-31T09:21:18;8.07;;;7.90;;
3943;SDS011;1986;52.546;13.428;2022-12-31T09:23:51;9.10;;;8.83;;
3943;SDS011;1986;52.546;13.428;2022-12-31T09:26:28;8.50;;;8.30;;
3943;SDS011;1986;52.546;13.428;2022-12-31T09:29:15;8.30;;;8.10;;
3943;SDS011;1986;52.546;13.428;2022-12-31T09:31:52;8.97;;;8.77;;
3943;SDS011;1986;52.546;13.428;2022-12-31T09:34:25;9.03;;;8.83;;
3943;SDS011;1986;52.546;13.428;2022-12-31T09:37:01;9.60;;;9.40;;
3943;SDS011;1986;52.546;13.428;2022-12-31T09:39:36;10.33;;;10.00;;
3943;SDS011;1986;52.546;13.428;2022-12-31T09:42:17;10.57;;;10.20;;
3943;SDS011;1986;52.546;13.428;2022-12-31T09:45:18;10.60;;;9.90;;
3943;SDS011;1986;52.546;13.428;2022-12-31T09:51:01;10.97;;;10.50;;
3943;SDS011;1986;52.546;13.428;2022-12-31T09:53:50;11.30;;;10.90;;
3943;SDS011;1986;52.546;13.428;2022-12-31T09:56:31;10.30;;;10.07;;
3943;SDS011;1986;52.546;13.428;2022-12-31T09:59:02;11.10;;;10.80;;
3943;SDS011;1986;52.546;13.428;2022-12-31T10:01:37;10.77;;;10.40;;
3943;SDS011;1986;52.546;13.428;2022-12-31T10:04:24;11.07;;;10.67;;
3943;SDS011;1986;52.546;13.428;2022-12-31T10:07:12;10.80;;;10.50;;
3943;SDS011;1986;52.546;13.428;2022-12-31T10:10:10;11.43;;;11.13;;
3943;SDS011;1986;52.546;13.428;2022-12-31T10:12:48;11.93;;;11.50;;
3943;SDS011;1986;52.546;13.428;2022-12-31T10:15:35;11.47;;;11.17;;
3943;SDS011;1986;52.546;13.428;2022-12-31T10:18:28;11.70;;;11.30;;
3943;SDS011;1986;52.546;13.428;2022-12-31T10:21:13;11.47;;;11.17;;
3943;SDS011;1986;52.546;13.428;2022-12-31T10:27:11;11.07;;;10.77;;
3943;SDS011;1986;52.546;13.428;2022-12-31T10:29:47;11.37;;;10.97;;
3943;SDS011;1986;52.546;13.428;2022-12-31T10:32:24;11.20;;;10.90;;
3943;SDS011;1986;52.546;13.428;2022-12-31T10:35:11;11.77;;;10.80;;
3943;SDS011;1986;52.546;13.428;2022-12-31T10:37:47;10.20;;;10.00;;
3943;SDS011;1986;52.546;13.428;2022-12-31T10:40:22;12.23;;;11.43;;
3943;SDS011;1986;52.546;13.428;2022-12-31T10:46:25;7.70;;;7.60;;
3943;SDS011;1986;52.546;13.428;2022-12-31T10:49:09;7.10;;;6.80;;
3943;SDS011;1986;52.546;13.428;2022-12-31T10:58:07;4.00;;;3.90;;
3943;SDS011;1986;52.546;13.428;2022-12-31T11:00:47;3.40;;;3.30;;
3943;SDS011;1986;52.546;13.428;2022-12-31T11:06:52;3.90;;;3.67;;
3943;SDS011;1986;52.546;13.428;2022-12-31T11:09:46;3.10;;;3.00;;
3943;SDS011;1986;52.546;13.428;2022-12-31T11:12:49;4.53;;;2.87;;
3943;SDS011;1986;52.546;13.428;2022-12-31T11:15:47;3.23;;;3.07;;
3943;SDS011;1986;52.546;13.428;2022-12-31T11:18:32;2.13;;;2.13;;
3943;SDS011;1986;52.546;13.428;2022-12-31T11:21:10;2.50;;;2.40;;
3943;SDS011;1986;52.546;13.428;2022-12-31T11:23:51;3.10;;;2.90;;
3943;SDS011;1986;52.546;13.428;2022-12-31T11:26:32;3.20;;;3.10;;
3943;SDS011;1986;52.546;13.428;2022-12-31T11:29:15;3.63;;;3.43;;
3943;SDS011;1986;52.546;13.428;2022-12-31T11:32:02;3.47;;;3.27;;
3943;SDS011;1986;52.546;13.428;2022-12-31T11:34:50;2.90;;;2.90;;
3943;SDS011;1986;52.546;13.428;2022-12-31T11:37:36;4.30;;;4.20;;
3943;SDS011;1986;52.546;13.428;2022-12-31T11:40:20;3.00;;;3.00;;
3943;SDS011;1986;52.546;13.428;2022-12-31T11:43:10;3.10;;;3.10;;
3943;SDS011;1986;52.546;13.428;2022-12-31T11:52:06;5.83;;;5.60;;
3943;SDS011;1986;52.546;13.428;2022-12-31T11:54:49;5.30;;;5.20;;
3943;SDS011;1986;52.546;13.428;2022-12-31T11:57:23;6.30;;;6.20;;
3943;SDS011;1986;52.546;13.428;2022-12-31T11:59:55;7.07;;;6.97;;
3943;SDS011;1986;52.546;13.428;2022-12-31T12:02:24;7.90;;;7.70;;
3943;SDS011;1986;52.546;13.428;2022-12-31T12:04:55;8.13;;;8.03;;
3943;SDS011;1986;52.546;13.428;2022-12-31T12:07:25;9.43;;;9.23;;
3943;SDS011;1986;52.546;13.428;2022-12-31T12:09:54;9.00;;;8.80;;
3943;SDS011;1986;52.546;13.428;2022-12-31T12:12:23;10.00;;;9.70;;
3943;SDS011;1986;52.546;13.428;2022-12-31T12:14:51;10.77;;;10.47;;
3943;SDS011;1986;52.546;13.428;2022-12-31T12:17:22;11.53;;;11.13;;
3943;SDS011;1986;52.546;13.428;2022-12-31T12:19:59;11.90;;;11.50;;
3943;SDS011;1986;52.546;13.428;2022-12-31T12:22:30;12.20;;;11.70;;
3943;SDS011;1986;52.546;13.428;2022-12-31T12:25:01;13.43;;;12.93;;
3943;SDS011;1986;52.546;13.428;2022-12-31T12:27:30;12.70;;;12.30;;
3943;SDS011;1986;52.546;13.428;2022-12-31T12:30:10;15.97;;;15.03;;
3943;SDS011;1986;52.546;13.428;2022-12-31T12:32:50;12.40;;;11.90;;
3943;SDS011;1986;52.546;13.428;2022-12-31T12:35:23;13.57;;;13.07;;
3943;SDS011;1986;52.546;13.428;2022-12-31T12:38:00;12.60;;;12.20;;
3943;SDS011;1986;52.546;13.428;2022-12-31T12:40:28;13.47;;;12.97;;
3943;SDS011;1986;52.546;13.428;2022-12-31T12:42:56;14.37;;;13.77;;
3943;SDS011;1986;52.546;13.428;2022-12-31T12:45:24;14.33;;;13.83;;
3943;SDS011;1986;52.546;13.428;2022-12-31T12:48:02;13.90;;;13.40;;
3943;SDS011;1986;52.546;13.428;2022-12-31T12:50:43;14.10;;;13.50;;
3943;SDS011;1986;52.546;13.428;2022-12-31T12:53:18;14.07;;;13.53;;
3943;SDS011;1986;52.546;13.428;2022-12-31T12:55:53;15.03;;;14.40;;
3943;SDS011;1986;52.546;13.428;2022-12-31T12:58:33;14.73;;;13.87;;
3943;SDS011;1986;52.546;13.428;2022-12-31T13:01:12;14.50;;;13.90;;
3943;SDS011;1986;52.546;13.428;2022-12-31T13:03:59;14.63;;;14.03;;
3943;SDS011;1986;52.546;13.428;2022-12-31T13:06:45;15.60;;;14.80;;
3943;SDS011;1986;52.546;13.428;2022-12-31T13:09:30;15.73;;;14.93;;
3943;SDS011;1986;52.546;13.428;2022-12-31T13:12:09;15.20;;;14.60;;
3943;SDS011;1986;52.546;13.428;2022-12-31T13:14:47;15.83;;;14.87;;
3943;SDS011;1986;52.546;13.428;2022-12-31T13:20:17;14.40;;;13.90;;
3943;SDS011;1986;52.546;13.428;2022-12-31T13:22:53;15.90;;;15.10;;
3943;SDS011;1986;52.546;13.428;2022-12-31T13:25:27;14.70;;;14.10;;
3943;SDS011;1986;52.546;13.428;2022-12-31T13:27:57;14.90;;;14.30;;
3943;SDS011;1986;52.546;13.428;2022-12-31T13:30:30;15.57;;;14.77;;
3943;SDS011;1986;52.546;13.428;2022-12-31T13:33:00;14.80;;;14.20;;
3943;SDS011;1986;52.546;13.428;2022-12-31T13:35:33;14.87;;;14.27;;
3943;SDS011;1986;52.546;13.428;2022-12-31T13:38:11;15.27;;;14.60;;
3943;SDS011;1986;52.546;13.428;2022-12-31T13:40:44;15.43;;;14.73;;
3943;SDS011;1986;52.546;13.428;2022-12-31T13:43:17;14.40;;;13.90;;
3943;SDS011;1986;52.546;13.428;2022-12-31T13:45:54;15.50;;;14.80;;
3943;SDS011;1986;52.546;13.428;2022-12-31T13:48:29;15.10;;;14.50;;
3943;SDS011;1986;52.546;13.428;2022-12-31T13:51:03;14.90;;;14.30;;
3943;SDS011;1986;52.546;13.428;2022-12-31T13:53:39;15.10;;;14.50;;
3943;SDS011;1986;52.546;13.428;2022-12-31T13:56:12;14.77;;;14.17;;
3943;SDS011;1986;52.546;13.428;2022-12-31T13:58:45;15.43;;;14.73;;
3943;SDS011;1986;52.546;13.428;2022-12-31T14:01:18;15.43;;;14.73;;
3943;SDS011;1986;52.546;13.428;2022-12-31T14:03:53;15.10;;;14.50;;
3943;SDS011;1986;52.546;13.428;2022-12-31T14:06:26;15.37;;;14.77;;
3943;SDS011;1986;52.546;13.428;2022-12-31T14:09:00;15.47;;;14.87;;
3943;SDS011;1986;52.546;13.428;2022-12-31T14:11:32;15.17;;;14.53;;
3943;SDS011;1986;52.546;13.428;2022-12-31T14:14:13;15.53;;;14.73;;
3943;SDS011;1986;52.546;13.428;2022-12-31T14:16:47;15.17;;;14.53;;
3943;SDS011;1986;52.546;13.428;2022-12-31T14:19:22;15.10;;;14.50;;
3943;SDS011;1986;52.546;13.428;2022-12-31T14:21:57;14.60;;;14.00;;
3943;SDS011;1986;52.546;13.428;2022-12-31T14:24:36;15.43;;;14.83;;
3943;SDS011;1986;52.546;13.428;2022-12-31T14:27:10;14.77;;;14.17;;
3943;SDS011;1986;52.546;13.428;2022-12-31T14:29:42;14.83;;;14.23;;
3943;SDS011;1986;52.546;13.428;2022-12-31T14:32:18;14.50;;;14.00;;
3943;SDS011;1986;52.546;13.428;2022-12-31T14:35:00;14.50;;;14.00;;
3943;SDS011;1986;52.546;13.428;2022-12-31T14:37:41;14.10;;;13.60;;
3943;SDS011;1986;52.546;13.428;2022-12-31T14:40:17;14.70;;;14.10;;
3943;SDS011;1986;52.546;13.428;2022-12-31T14:42:54;15.27;;;14.57;;
3943;SDS011;1986;52.546;13.428;2022-12-31T14:45:34;15.50;;;14.70;;
3943;SDS011;1986;52.546;13.428;2022-12-31T14:48:09;14.97;;;14.37;;
3943;SDS011;1986;52.546;13.428;2022-12-31T14:50:48;14.53;;;14.03;;
3943;SDS011;1986;52.546;13.428;2022-12-31T14:53:17;16.37;;;15.47;;
3943;SDS011;1986;52.546;13.428;2022-12-31T14:55:56;15.53;;;14.80;;
3943;SDS011;1986;52.546;13.428;2022-12-31T14:58:29;14.77;;;14.07;;
3943;SDS011;1986;52.546;13.428;2022-12-31T15:00:58;15.93;;;14.90;;
3943;SDS011;1986;52.546;13.428;2022-12-31T15:03:37;15.97;;;14.43;;
3943;SDS011;1986;52.546;13.428;2022-12-31T15:06:10;15.03;;;14.43;;
3943;SDS011;1986;52.546;13.428;2022-12-31T15:15:25;15.50;;;14.80;;
3943;SDS011;1986;52.546;13.428;2022-12-31T15:18:03;15.13;;;14.53;;
3943;SDS011;1986;52.546;13.428;2022-12-31T15:20:42;15.03;;;14.43;;
3943;SDS011;1986;52.546;13.428;2022-12-31T15:23:34;15.17;;;14.43;;
3943;SDS011;1986;52.546;13.428;2022-12-31T15:26:02;17.10;;;16.13;;
3943;SDS011;1986;52.546;13.428;2022-12-31T15:28:34;14.63;;;14.13;;
3943;SDS011;1986;52.546;13.428;2022-12-31T15:31:12;14.80;;;14.30;;
3943;SDS011;1986;52.546;13.428;2022-12-31T15:33:52;13.93;;;13.43;;
3943;SDS011;1986;52.546;13.428;2022-12-31T15:36:23;13.83;;;13.33;;
3943;SDS011;1986;52.546;13.428;2022-12-31T15:38:53;14.00;;;13.50;;
3943;SDS011;1986;52.546;13.428;2022-12-31T15:41:35;15.20;;;14.60;;
3943;SDS011;1986;52.546;13.428;2022-12-31T15:44:11;15.10;;;14.23;;
3943;SDS011;1986;52.546;13.428;2022-12-31T15:46:50;13.90;;;13.40;;
3943;SDS011;1986;52.546;13.428;2022-12-31T15:49:24;14.50;;;14.00;;
3943;SDS011;1986;52.546;13.428;2022-12-31T15:52:06;14.97;;;14.37;;
3943;SDS011;1986;52.546;13.428;2022-12-31T15:54:44;14.20;;;13.70;;
3943;SDS011;1986;52.546;13.428;2022-12-31T15:57:25;15.37;;;14.77;;
3943;SDS011;1986;52.546;13.428;2022-12-31T16:00:06;14.47;;;13.97;;
3943;SDS011;1986;52.546;13.428;2022-12-31T16:02:43;14.77;;;14.27;;
3943;SDS011;1986;52.546;13.428;2022-12-31T16:05:21;14.50;;;14.00;;
3943;SDS011;1986;52.546;13.428;2022-12-31T16:07:55;14.43;;;13.93;;
3943;SDS011;1986;52.546;13.428;2022-12-31T16:10:31;14.90;;;14.30;;
3943;SDS011;1986;52.546;13.428;2022-12-31T16:12:59;15.70;;;15.10;;